createdAt,value
2024-01-09T05:28:52.112Z,10.43
2024-01-09T05:31:43.889Z,19.37
2024-01-09T05:34:30.950Z,17.07
2024-01-09T05:37:17.577Z,18.00
2024-01-09T05:40:05.441Z,18.03
2024-01-09T05:42:51.785Z,14.83
2024-01-09T05:45:40.399Z,27.83
2024-01-09T05:48:26.963Z,18.67
2024-01-09T05:51:13.596Z,20.00
2024-01-09T05:54:00.032Z,22.03
2024-01-09T05:56:46.466Z,18.63
2024-01-09T05:59:33.952Z,16.27
2024-01-09T06:02:23.329Z,22.90
2024-01-09T06:05:10.220Z,16.43
2024-01-09T06:07:56.542Z,18.83
2024-01-09T06:10:43.926Z,18.77
2024-01-09T06:13:30.458Z,19.27
2024-01-09T06:16:16.967Z,17.80
2024-01-09T15:37:26.383Z,24.13
2024-01-09T15:40:15.038Z,26.47
2024-01-09T15:43:02.161Z,24.00
2024-01-09T15:45:48.861Z,18.60
2024-01-09T15:48:35.818Z,26.73
2024-01-09T15:51:23.337Z,20.50
2024-01-09T15:54:13.138Z,25.33
2024-01-09T15:56:59.590Z,28.10
2024-01-09T15:59:46.154Z,25.20
2024-01-09T16:02:32.553Z,26.87
2024-01-09T16:05:19.582Z,37.27
2024-01-09T16:08:10.765Z,29.73
2024-01-09T16:10:58.790Z,31.40
2024-01-09T16:13:46.342Z,28.27
2024-01-09T16:16:33.186Z,24.07
2024-01-09T16:19:19.567Z,34.37
2024-01-09T16:22:08.126Z,27.83
2024-01-09T16:24:55.618Z,30.93
2024-01-09T16:27:43.352Z,26.53
2024-01-09T16:30:30.011Z,32.30
2024-01-09T16:33:16.656Z,39.80
2024-01-09T16:36:05.064Z,31.53
2024-01-09T16:38:51.646Z,39.53
2024-01-09T16:41:38.249Z,36.77
2024-01-09T16:44:26.157Z,35.17
2024-01-09T16:47:12.914Z,49.13
2024-01-09T16:49:59.747Z,34.20
2024-01-09T16:52:49.749Z,34.47
2024-01-09T16:55:36.420Z,36.03
2024-01-09T16:58:26.562Z,40.00
2024-01-09T17:01:22.572Z,44.57
2024-01-09T17:04:09.339Z,48.17
2024-01-09T17:06:55.926Z,37.50
2024-01-09T17:09:44.109Z,42.20
2024-01-09T17:12:30.801Z,51.93
2024-01-09T17:15:17.526Z,48.13
2024-01-09T17:18:06.362Z,39.67
2024-01-09T17:20:52.868Z,41.70
2024-01-09T17:23:39.394Z,40.90
2024-01-09T17:26:25.843Z,34.00
2024-01-09T17:29:12.190Z,50.33
2024-01-09T17:31:58.980Z,32.53
2024-01-09T17:34:47.156Z,30.47
2024-01-09T17:37:33.625Z,39.80
2024-01-09T17:40:21.077Z,33.80
2024-01-09T17:43:07.801Z,38.13
2024-01-09T17:45:55.512Z,36.70
2024-01-09T17:48:42.171Z,30.67
2024-01-09T17:51:30.261Z,35.93
2024-01-09T17:54:16.768Z,39.10
2024-01-09T17:57:04.066Z,34.77
2024-01-09T17:59:50.435Z,31.30
2024-01-09T18:02:38.501Z,39.90
2024-01-09T18:05:25.574Z,39.90
2024-01-09T18:08:13.624Z,31.50
2024-01-09T18:11:02.819Z,34.53
2024-01-09T18:13:49.419Z,28.03
2024-01-09T18:16:35.996Z,32.30
2024-01-09T18:19:22.719Z,30.40
2024-01-09T18:22:09.163Z,35.63
2024-01-09T18:24:56.844Z,40.37
2024-01-09T18:27:43.296Z,32.33
2024-01-09T18:30:29.842Z,36.20
2024-01-09T18:33:16.258Z,38.07
2024-01-09T18:36:02.749Z,39.37
2024-01-09T18:38:49.572Z,33.00
2024-01-09T18:41:37.579Z,30.03
2024-01-09T18:44:24.016Z,37.67
2024-01-09T18:47:10.765Z,40.63
2024-01-09T18:49:57.235Z,42.63
2024-01-09T18:52:43.682Z,33.40
2024-01-09T18:55:30.946Z,34.37
2024-01-09T18:58:18.926Z,28.37
2024-01-09T19:01:07.161Z,38.80
2024-01-09T19:03:53.793Z,34.73
2024-01-09T19:06:40.551Z,32.00
2024-01-09T19:09:27.365Z,39.80
2024-01-09T19:12:13.986Z,34.70
2024-01-09T19:15:01.759Z,37.07
2024-01-09T19:17:49.257Z,31.97
2024-01-09T19:20:36.574Z,38.03
2024-01-09T19:23:23.264Z,36.63
2024-01-09T19:26:09.753Z,37.17
2024-01-09T19:28:56.509Z,44.70
2024-01-09T19:31:45.222Z,47.73
2024-01-09T19:34:31.994Z,52.60
2024-01-09T19:37:19.008Z,58.70
2024-01-09T19:40:06.846Z,58.33
2024-01-09T19:42:53.333Z,44.03
2024-01-09T19:45:40.552Z,41.03
2024-01-09T19:48:28.535Z,50.53
2024-01-09T19:51:14.983Z,44.07
2024-01-09T19:54:02.541Z,40.90
2024-01-09T19:56:49.131Z,39.37
2024-01-09T19:59:39.029Z,35.73
2024-01-09T20:02:30.962Z,34.13
2024-01-09T20:05:19.542Z,49.37
2024-01-09T20:08:08.248Z,35.40
2024-01-09T20:10:54.771Z,46.50
2024-01-09T20:13:44.237Z,36.90
2024-01-09T20:16:30.735Z,35.17
2024-01-09T20:19:17.902Z,34.87
2024-01-09T20:22:06.108Z,39.43
2024-01-09T20:24:52.581Z,40.37
2024-01-09T20:27:40.545Z,38.20
